Airfield :
LOGIN :

Register | Disclaimer

   EN    FR    IT 

 










Legend :    VFR   Marginal VFR   IFR   Intensive IFR   Very Intensive IFR
Visi :
Ceiling :
>= 8 km
>= 3000ft
5 to 8 km
1000 to 3000 ft
1500m to 5 km
500 to 1000 ft
800 to 1500m
200 to 500 ft
< 800m
< 200 ft
Symbols :   Thunderstorms  Fog  Heavy snow  Heavy precipitations  Wind > 20 kt
SIGMETs :     Misc.  Thunderstorms  Icing  Turbulence  Mountain Waves  Volcanic Ashes






- Airport Elevation : 37 ft


EHVL - Vlieland Heliport

CURRENT METAR :
  • 152011Z AUTO 10010KT 3200 BR FEW008 SCT010 OVC023 05/05 Q1004 YLO

EXPIRED METARs :
  • 151955Z AUTO 09012KT 3300 BR FEW005 OVC022 05/05 Q1004 YLO
  • 151925Z AUTO 09012KT 3500 BR FEW006 BKN007 OVC008 05/05 Q1004 YLO
  • 151855Z AUTO 09012KT 3400 BR FEW005 SCT007 BKN010 05/05 Q1004 YLO
  • 151825Z AUTO 08013KT 2800 BR FEW004 BKN007 BKN009 05/04 Q1003 YLO
  • 151755Z AUTO 08015KT 2900 BR FEW004 BKN005 BKN007 05/04 Q1004 YLO
  • 151729Z AUTO 08015KT 3000 BR FEW005 BKN007 BKN008 05/04 Q1003 YLO
  • 151725Z AUTO 08014KT 3400 BR SCT005 BKN007 OVC009 05/04 Q1003 YLO

Expired Forecast.



MET'MAP, your aeronautical weather chart ! - Copyright ORBIFLY December 2007 - Disclaimer

ORBIFLY MET'MAP TEAM :

Programming & Development : Alexandra Zaïnal
Concept & Development : Baudouin d'Aumeries
Co-Development & Prog : Marc-Olivier Méhu
Technical & hardware support : Manuel Goepfert

Contact : metmap@orbifly.com




SOURCES & CREDITS :

   NOAA